Time;durP1;ratioP1;P1;durP2;ratioP2;P2;SDS_P1;SDS_P2;PMS_P1;PMS_P2;Temp;Humidity;BMP_temperature;BMP_pressure;BME280_temperature;BME280_humidity;BME280_pressure;Samples;Min_cycle;Max_cycle;Signal;HPM_P1;HPM_P2
2023/05/11 00:01:37;;;;;;;14.93;8.90;;;;;;;;;;5025847;28;20014;-78
2023/05/11 00:04:03;;;;;;;10.30;7.57;;;;;;;;;;5026151;28;20051;-80
2023/05/11 00:06:32;;;;;;;10.20;5.80;;;;;;;;;;5026756;28;20046;-80
2023/05/11 00:08:58;;;;;;;10.63;5.57;;;;;;;;;;5029528;28;20029;-79
2023/05/11 00:11:24;;;;;;;7.20;4.90;;;;;;;;;;5009486;28;20054;-79
2023/05/11 00:13:52;;;;;;;6.93;4.43;;;;;;;;;;5026097;28;20053;-78
2023/05/11 00:16:18;;;;;;;14.23;4.67;;;;;;;;;;5005710;28;20021;-80
2023/05/11 00:18:44;;;;;;;12.07;5.07;;;;;;;;;;4993676;28;20462;-78
2023/05/11 00:21:10;;;;;;;10.53;6.07;;;;;;;;;;4991742;28;20038;-78
2023/05/11 00:23:36;;;;;;;10.63;6.33;;;;;;;;;;4990038;28;20041;-78
2023/05/11 00:26:02;;;;;;;11.10;5.57;;;;;;;;;;4994073;28;20123;-77
2023/05/11 00:28:28;;;;;;;12.17;6.20;;;;;;;;;;4993940;28;20066;-77
2023/05/11 00:30:55;;;;;;;18.43;8.03;;;;;;;;;;5007775;28;20062;-78
2023/05/11 00:33:21;;;;;;;18.63;7.50;;;;;;;;;;5005055;28;20029;-77
2023/05/11 00:35:48;;;;;;;15.73;7.93;;;;;;;;;;5007268;28;20041;-78
2023/05/11 00:38:14;;;;;;;18.23;8.57;;;;;;;;;;4992519;28;20037;-78
2023/05/11 00:40:40;;;;;;;9.87;6.07;;;;;;;;;;5004391;28;20109;-77
2023/05/11 00:43:06;;;;;;;9.37;6.43;;;;;;;;;;4993071;28;20442;-78
2023/05/11 00:45:34;;;;;;;6.93;4.53;;;;;;;;;;5006097;28;20070;-78
2023/05/11 00:48:00;;;;;;;9.57;4.33;;;;;;;;;;4992749;28;20034;-78
2023/05/11 00:50:27;;;;;;;9.63;3.27;;;;;;;;;;4997856;28;20133;-78
2023/05/11 00:52:53;;;;;;;4.93;2.67;;;;;;;;;;4992399;28;20030;-79
2023/05/11 00:55:20;;;;;;;4.37;2.63;;;;;;;;;;4995812;28;20161;-79
2023/05/11 00:57:46;;;;;;;8.30;2.77;;;;;;;;;;4990250;28;20049;-79
2023/05/11 01:00:12;;;;;;;5.90;2.60;;;;;;;;;;4993790;28;20026;-79
2023/05/11 01:02:39;;;;;;;5.00;2.70;;;;;;;;;;4992152;28;20038;-80
2023/05/11 01:05:05;;;;;;;10.07;3.70;;;;;;;;;;5010594;28;20030;-80
2023/05/11 01:07:34;;;;;;;10.23;4.80;;;;;;;;;;4992459;28;20041;-79
2023/05/11 01:10:08;;;;;;;8.90;4.47;;;;;;;;;;4990832;28;20022;-79
2023/05/11 01:12:56;;;;;;;11.43;4.43;;;;;;;;;;4988196;28;20030;-80
2023/05/11 01:15:22;;;;;;;13.97;6.43;;;;;;;;;;4998316;28;20088;-78
2023/05/11 01:17:57;;;;;;;14.53;6.63;;;;;;;;;;4999737;28;20726;-80
2023/05/11 01:20:26;;;;;;;26.70;8.37;;;;;;;;;;5011945;28;20035;-80
2023/05/11 01:23:00;;;;;;;30.67;10.50;;;;;;;;;;4999318;28;20037;-80
2023/05/11 01:25:38;;;;;;;24.10;10.57;;;;;;;;;;5019386;28;20054;-80
2023/05/11 01:28:11;;;;;;;36.90;11.17;;;;;;;;;;5024154;28;20022;-79
2023/05/11 01:30:49;;;;;;;39.45;10.98;;;;;;;;;;5008642;28;20042;-80
2023/05/11 01:33:15;;;;;;;35.10;11.80;;;;;;;;;;5028570;28;20021;-80
2023/05/11 01:35:45;;;;;;;38.60;11.43;;;;;;;;;;5006945;28;20097;-78
2023/05/11 01:38:12;;;;;;;31.30;12.03;;;;;;;;;;5010051;28;20054;-77
2023/05/11 01:40:40;;;;;;;39.53;11.97;;;;;;;;;;5013086;28;20104;-77
2023/05/11 01:43:13;;;;;;;38.40;13.40;;;;;;;;;;5015839;28;20025;-78
2023/05/11 01:45:45;;;;;;;36.40;13.73;;;;;;;;;;5010723;28;20037;-79
2023/05/11 01:48:16;;;;;;;43.83;13.60;;;;;;;;;;5027021;28;20177;-79
2023/05/11 01:50:43;;;;;;;41.33;13.77;;;;;;;;;;5028207;28;20330;-80
2023/05/11 01:53:10;;;;;;;35.93;13.43;;;;;;;;;;5030117;28;20034;-79
2023/05/11 01:55:37;;;;;;;36.10;13.30;;;;;;;;;;5028774;28;20045;-79
2023/05/11 01:58:03;;;;;;;39.23;13.50;;;;;;;;;;5014197;28;20065;-80
2023/05/11 02:00:30;;;;;;;43.00;14.23;;;;;;;;;;5032521;28;20106;-80
2023/05/11 02:03:01;;;;;;;49.87;15.40;;;;;;;;;;5030121;28;20109;-78
2023/05/11 02:05:34;;;;;;;52.43;15.17;;;;;;;;;;5012549;28;20048;-77
2023/05/11 02:08:01;;;;;;;58.57;16.30;;;;;;;;;;5015023;28;20022;-78
2023/05/11 02:10:27;;;;;;;48.63;16.13;;;;;;;;;;5027866;28;20042;-77
2023/05/11 02:12:53;;;;;;;59.37;17.53;;;;;;;;;;5014655;28;20029;-77
2023/05/11 02:15:21;;;;;;;55.37;18.47;;;;;;;;;;5032191;28;20026;-78
2023/05/11 02:17:53;;;;;;;71.83;20.17;;;;;;;;;;5012366;28;20060;-77
2023/05/11 02:20:20;;;;;;;56.05;18.83;;;;;;;;;;5013517;28;20011;-77
2023/05/11 02:22:46;;;;;;;67.13;20.47;;;;;;;;;;5014896;28;20034;-77
2023/05/11 02:25:12;;;;;;;90.10;24.30;;;;;;;;;;5015553;28;20510;-78
2023/05/11 02:27:39;;;;;;;68.90;21.37;;;;;;;;;;5032169;28;20038;-79
2023/05/11 02:30:10;;;;;;;66.50;21.17;;;;;;;;;;5028677;28;20029;-79
2023/05/11 02:32:37;;;;;;;82.60;22.47;;;;;;;;;;5029654;28;20049;-79
2023/05/11 02:35:13;;;;;;;75.97;22.20;;;;;;;;;;5028649;28;20015;-78
2023/05/11 02:37:46;;;;;;;63.27;20.30;;;;;;;;;;5030114;28;20026;-77
2023/05/11 02:40:16;;;;;;;61.07;20.07;;;;;;;;;;5030800;28;20033;-79
2023/05/11 02:42:43;;;;;;;76.33;22.93;;;;;;;;;;5031967;28;20104;-79
2023/05/11 02:45:10;;;;;;;102.00;22.30;;;;;;;;;;5031097;28;20013;-78
2023/05/11 02:47:43;;;;;;;62.33;21.50;;;;;;;;;;5014761;28;20021;-78
2023/05/11 02:50:09;;;;;;;;;;;;;;;;;;5013210;28;20021;-77
2023/05/11 02:52:36;;;;;;;99.20;23.20;;;;;;;;;;5033733;28;19997;-77
2023/05/11 02:55:03;;;;;;;60.40;20.43;;;;;;;;;;5031371;28;20061;-78
2023/05/11 02:57:29;;;;;;;57.07;20.10;;;;;;;;;;5031702;28;20018;-78
2023/05/11 02:59:55;;;;;;;60.47;21.53;;;;;;;;;;5030336;28;20061;-78
2023/05/11 03:02:22;;;;;;;70.13;23.00;;;;;;;;;;5013727;28;20069;-78
2023/05/11 03:04:48;;;;;;;72.10;22.33;;;;;;;;;;5016503;28;20010;-78
2023/05/11 03:07:14;;;;;;;75.50;21.97;;;;;;;;;;5029612;28;20034;-78
2023/05/11 03:09:40;;;;;;;62.57;22.27;;;;;;;;;;5015469;28;20013;-79
2023/05/11 03:12:06;;;;;;;80.27;23.67;;;;;;;;;;5030965;28;20034;-77
2023/05/11 03:14:35;;;;;;;79.20;24.63;;;;;;;;;;5032707;28;20026;-78
2023/05/11 03:17:02;;;;;;;69.97;22.63;;;;;;;;;;5030914;28;20033;-78
2023/05/11 03:19:29;;;;;;;67.60;21.97;;;;;;;;;;5029214;28;20014;-79
2023/05/11 03:21:57;;;;;;;67.93;22.77;;;;;;;;;;5027331;28;20032;-78
2023/05/11 03:24:24;;;;;;;76.17;22.07;;;;;;;;;;5014906;28;20010;-77
2023/05/11 03:26:51;;;;;;;78.33;24.87;;;;;;;;;;5030058;28;20026;-78
2023/05/11 03:29:19;;;;;;;112.47;26.83;;;;;;;;;;5014304;28;20013;-78
2023/05/11 03:31:45;;;;;;;151.47;28.97;;;;;;;;;;5014071;28;20093;-80
2023/05/11 03:34:12;;;;;;;117.93;27.00;;;;;;;;;;5029057;28;20164;-79
2023/05/11 03:36:39;;;;;;;104.67;26.40;;;;;;;;;;5015607;28;20038;-77
2023/05/11 03:39:06;;;;;;;151.53;29.73;;;;;;;;;;5013893;28;20101;-77
2023/05/11 03:41:33;;;;;;;133.93;28.93;;;;;;;;;;5017648;28;20042;-77
2023/05/11 03:44:00;;;;;;;131.83;27.07;;;;;;;;;;5027569;28;20018;-78
2023/05/11 03:46:26;;;;;;;151.90;28.97;;;;;;;;;;5015549;28;20041;-79
2023/05/11 03:48:52;;;;;;;145.77;29.87;;;;;;;;;;5026465;28;20036;-80
2023/05/11 03:51:21;;;;;;;143.50;30.20;;;;;;;;;;5012655;28;20262;-78
2023/05/11 03:53:47;;;;;;;162.67;32.70;;;;;;;;;;5031028;28;20030;-77
2023/05/11 03:56:13;;;;;;;207.20;34.37;;;;;;;;;;5013484;28;20021;-78
2023/05/11 03:58:39;;;;;;;149.60;29.03;;;;;;;;;;5031048;28;20032;-78
2023/05/11 04:01:08;;;;;;;128.37;30.07;;;;;;;;;;5013178;28;20014;-78
2023/05/11 04:03:35;;;;;;;162.30;32.50;;;;;;;;;;5013119;28;20038;-79
2023/05/11 04:06:01;;;;;;;92.87;26.60;;;;;;;;;;5011315;28;20173;-77
2023/05/11 04:08:28;;;;;;;148.93;31.10;;;;;;;;;;5027377;28;20038;-77
2023/05/11 04:10:57;;;;;;;129.73;30.47;;;;;;;;;;5030308;28;20029;-78
2023/05/11 04:13:23;;;;;;;132.23;31.17;;;;;;;;;;5031566;28;20018;-78
2023/05/11 04:15:49;;;;;;;115.00;28.17;;;;;;;;;;5031073;28;20018;-78
2023/05/11 04:18:19;;;;;;;125.73;30.97;;;;;;;;;;5010565;28;20036;-77
2023/05/11 04:20:45;;;;;;;111.60;29.27;;;;;;;;;;5029642;28;20030;-78
2023/05/11 04:23:11;;;;;;;107.67;26.87;;;;;;;;;;5028713;28;20070;-78
2023/05/11 04:25:37;;;;;;;96.80;25.73;;;;;;;;;;5012405;28;20022;-78
2023/05/11 04:28:03;;;;;;;100.53;27.30;;;;;;;;;;5013479;28;20029;-79
2023/05/11 04:30:29;;;;;;;104.50;26.67;;;;;;;;;;5019286;28;20306;-78
2023/05/11 04:32:55;;;;;;;90.17;25.33;;;;;;;;;;5017151;28;20050;-78
2023/05/11 04:35:23;;;;;;;90.57;27.33;;;;;;;;;;5029948;28;20068;-77
2023/05/11 04:37:49;;;;;;;92.23;25.90;;;;;;;;;;5028093;28;20022;-77
2023/05/11 04:40:15;;;;;;;85.70;26.57;;;;;;;;;;5014584;28;20018;-77
2023/05/11 04:42:41;;;;;;;77.37;25.73;;;;;;;;;;5012356;28;20072;-80
2023/05/11 04:45:08;;;;;;;78.73;25.07;;;;;;;;;;5027325;28;20101;-78
2023/05/11 04:47:34;;;;;;;81.80;25.57;;;;;;;;;;5013133;28;20057;-78
2023/05/11 04:50:00;;;;;;;76.70;25.33;;;;;;;;;;5029721;28;20026;-78
2023/05/11 04:52:26;;;;;;;56.70;23.00;;;;;;;;;;5028270;28;20014;-78
2023/05/11 04:54:52;;;;;;;56.23;22.70;;;;;;;;;;5027308;28;20060;-78
2023/05/11 04:57:18;;;;;;;58.40;22.60;;;;;;;;;;5029020;28;20030;-78
2023/05/11 04:59:44;;;;;;;52.07;21.80;;;;;;;;;;5011070;28;20089;-77
2023/05/11 05:02:10;;;;;;;56.10;22.47;;;;;;;;;;5028158;28;20045;-78
2023/05/11 05:04:37;;;;;;;50.77;20.87;;;;;;;;;;5026965;28;20083;-78
2023/05/11 05:07:03;;;;;;;58.23;21.50;;;;;;;;;;5010178;28;20018;-78
2023/05/11 05:09:29;;;;;;;56.83;22.47;;;;;;;;;;5013714;28;20037;-78
2023/05/11 05:11:57;;;;;;;63.77;23.53;;;;;;;;;;5028511;28;20031;-76
2023/05/11 05:14:26;;;;;;;61.07;24.23;;;;;;;;;;5030894;28;20037;-76
2023/05/11 05:16:53;;;;;;;58.83;24.17;;;;;;;;;;5009523;28;20042;-77
2023/05/11 05:19:19;;;;;;;72.87;24.60;;;;;;;;;;5014558;28;20023;-78
2023/05/11 05:21:45;;;;;;;59.20;24.73;;;;;;;;;;5012990;28;20054;-77
2023/05/11 05:24:11;;;;;;;66.07;25.30;;;;;;;;;;5028850;28;20049;-77
2023/05/11 05:26:37;;;;;;;61.27;25.37;;;;;;;;;;5025830;28;20036;-79
2023/05/11 05:29:04;;;;;;;61.50;26.73;;;;;;;;;;5013359;28;20022;-77
2023/05/11 05:31:30;;;;;;;66.83;28.73;;;;;;;;;;5012356;28;20036;-77
2023/05/11 05:33:59;;;;;;;67.77;27.47;;;;;;;;;;5027223;28;20029;-77
2023/05/11 05:36:25;;;;;;;71.33;27.03;;;;;;;;;;5012621;28;20038;-80
2023/05/11 05:38:51;;;;;;;66.93;30.10;;;;;;;;;;5029388;28;20027;-81
2023/05/11 05:41:17;;;;;;;56.53;25.93;;;;;;;;;;5010520;28;20057;-78
2023/05/11 05:43:43;;;;;;;66.60;27.63;;;;;;;;;;5014299;28;20048;-78
2023/05/11 05:46:09;;;;;;;65.03;27.13;;;;;;;;;;5028318;28;20026;-78
2023/05/11 05:48:35;;;;;;;64.73;27.53;;;;;;;;;;5027203;28;20027;-79
2023/05/11 05:51:01;;;;;;;62.27;28.83;;;;;;;;;;5012257;28;20093;-77
2023/05/11 05:53:28;;;;;;;67.17;29.60;;;;;;;;;;5010651;28;20025;-78
2023/05/11 05:55:54;;;;;;;57.90;29.60;;;;;;;;;;5024785;28;20026;-77
2023/05/11 05:58:22;;;;;;;73.20;30.67;;;;;;;;;;5015616;28;20045;-78
2023/05/11 06:00:51;;;;;;;64.50;30.60;;;;;;;;;;5030983;28;20022;-79
2023/05/11 06:03:20;;;;;;;71.80;30.90;;;;;;;;;;5010176;28;20038;-77
2023/05/11 06:05:46;;;;;;;71.83;32.33;;;;;;;;;;5009096;28;20033;-78
2023/05/11 06:08:12;;;;;;;64.07;31.57;;;;;;;;;;5026399;28;20042;-79
2023/05/11 06:10:38;;;;;;;56.23;30.77;;;;;;;;;;5024101;28;20057;-79
2023/05/11 06:13:04;;;;;;;73.43;33.03;;;;;;;;;;5029649;28;20026;-78
2023/05/11 06:15:31;;;;;;;70.40;32.90;;;;;;;;;;5033051;28;20084;-78
2023/05/11 06:17:59;;;;;;;69.13;33.77;;;;;;;;;;5030883;28;20038;-77
2023/05/11 06:20:28;;;;;;;67.13;33.63;;;;;;;;;;5028219;28;20025;-77
2023/05/11 06:22:54;;;;;;;77.47;34.57;;;;;;;;;;5031021;28;20030;-77
2023/05/11 06:25:20;;;;;;;64.03;33.23;;;;;;;;;;5032647;28;20010;-78
2023/05/11 06:27:48;;;;;;;62.97;31.37;;;;;;;;;;5015133;28;20034;-78
2023/05/11 06:30:14;;;;;;;69.50;35.93;;;;;;;;;;5015518;28;20025;-79
2023/05/11 06:32:40;;;;;;;58.50;32.63;;;;;;;;;;5034166;28;20026;-78
2023/05/11 06:35:07;;;;;;;60.50;30.80;;;;;;;;;;5019912;28;20056;-77
2023/05/11 06:37:34;;;;;;;60.30;32.60;;;;;;;;;;5014306;28;20030;-78
2023/05/11 06:40:03;;;;;;;55.47;31.07;;;;;;;;;;5027377;28;20014;-78
2023/05/11 06:42:29;;;;;;;51.73;29.50;;;;;;;;;;5012879;28;20042;-78
2023/05/11 06:44:55;;;;;;;57.33;29.83;;;;;;;;;;5014092;28;20014;-77
2023/05/11 06:47:21;;;;;;;52.00;27.50;;;;;;;;;;5027395;28;20034;-80
2023/05/11 06:49:47;;;;;;;54.57;26.87;;;;;;;;;;5014569;28;20080;-79
2023/05/11 06:52:13;;;;;;;47.70;26.63;;;;;;;;;;4994459;28;20034;-80
2023/05/11 06:54:39;;;;;;;45.33;26.63;;;;;;;;;;5016297;28;20517;-80
2023/05/11 06:57:05;;;;;;;48.70;26.37;;;;;;;;;;5004557;28;20201;-80
2023/05/11 06:59:31;;;;;;;39.15;22.77;;;;;;;;;;5010931;28;20030;-80
2023/05/11 07:01:57;;;;;;;37.73;24.70;;;;;;;;;;4992679;28;20041;-79
2023/05/11 07:04:24;;;;;;;44.50;25.40;;;;;;;;;;4994521;28;20366;-79
2023/05/11 07:06:50;;;;;;;38.17;23.60;;;;;;;;;;5012585;28;20040;-77
2023/05/11 07:09:16;;;;;;;38.10;22.05;;;;;;;;;;5016994;28;20094;-77
2023/05/11 07:11:42;;;;;;;36.67;22.90;;;;;;;;;;5031866;28;20038;-77
2023/05/11 07:14:08;;;;;;;37.17;24.80;;;;;;;;;;5027941;28;20066;-78
2023/05/11 07:16:37;;;;;;;38.88;25.90;;;;;;;;;;5010140;28;20042;-76
2023/05/11 07:19:04;;;;;;;42.80;26.77;;;;;;;;;;5030710;28;20022;-77
2023/05/11 07:21:36;;;;;;;40.65;26.95;;;;;;;;;;5031592;28;20048;-78
2023/05/11 07:24:04;;;;;;;41.67;26.42;;;;;;;;;;5015513;28;20026;-77
2023/05/11 07:26:33;;;;;;;34.17;24.75;;;;;;;;;;5031254;28;20026;-77
2023/05/11 07:28:59;;;;;;;38.28;24.75;;;;;;;;;;5013471;28;20025;-77
2023/05/11 07:31:25;;;;;;;45.90;26.83;;;;;;;;;;5013163;28;20025;-77
2023/05/11 07:33:52;;;;;;;35.80;23.77;;;;;;;;;;5030725;28;20022;-76
2023/05/11 07:36:20;;;;;;;30.15;23.08;;;;;;;;;;5015559;28;20025;-78
2023/05/11 07:38:46;;;;;;;33.35;24.15;;;;;;;;;;5030611;28;20312;-77
2023/05/11 07:41:12;;;;;;;29.85;21.58;;;;;;;;;;5030682;28;20022;-79
2023/05/11 07:43:38;;;;;;;34.30;24.05;;;;;;;;;;5027952;28;20105;-79
2023/05/11 07:46:04;;;;;;;32.75;23.17;;;;;;;;;;5030357;28;20018;-79
2023/05/11 07:48:30;;;;;;;31.70;23.42;;;;;;;;;;5030890;28;20170;-79
2023/05/11 07:50:57;;;;;;;29.63;19.95;;;;;;;;;;5014330;28;20022;-79
2023/05/11 07:53:25;;;;;;;26.60;20.02;;;;;;;;;;5013364;28;20022;-78
2023/05/11 07:55:53;;;;;;;27.13;19.45;;;;;;;;;;5010239;28;20021;-79
2023/05/11 07:58:19;;;;;;;28.95;20.73;;;;;;;;;;5031961;28;20046;-79
2023/05/11 08:00:45;;;;;;;27.70;19.98;;;;;;;;;;5031233;28;20021;-79
2023/05/11 08:03:12;;;;;;;26.48;19.63;;;;;;;;;;5015470;28;20045;-78
2023/05/11 08:05:38;;;;;;;24.02;19.15;;;;;;;;;;5031118;28;20049;-79
2023/05/11 08:08:04;;;;;;;26.20;19.15;;;;;;;;;;5013605;28;20034;-79
2023/05/11 08:10:30;;;;;;;23.42;16.90;;;;;;;;;;5014469;28;20025;-80
2023/05/11 08:12:57;;;;;;;24.15;16.85;;;;;;;;;;5029286;28;20023;-79
2023/05/11 08:15:26;;;;;;;24.20;17.33;;;;;;;;;;5030293;28;20058;-80
2023/05/11 08:17:53;;;;;;;23.10;16.40;;;;;;;;;;5014983;28;21098;-78
2023/05/11 08:20:25;;;;;;;22.40;15.60;;;;;;;;;;5029984;28;20013;-80
2023/05/11 08:22:51;;;;;;;22.13;14.57;;;;;;;;;;5013848;28;20054;-79
2023/05/11 08:25:17;;;;;;;19.88;15.52;;;;;;;;;;5028124;28;20033;-78
2023/05/11 08:27:43;;;;;;;20.30;15.90;;;;;;;;;;5028110;28;20010;-79
2023/05/11 08:30:09;;;;;;;20.90;14.48;;;;;;;;;;5013577;28;20014;-78
2023/05/11 08:32:36;;;;;;;20.45;13.40;;;;;;;;;;5026032;28;20029;-80
2023/05/11 08:35:03;;;;;;;19.15;11.93;;;;;;;;;;5027969;28;20108;-79
2023/05/11 08:37:34;;;;;;;15.63;11.93;;;;;;;;;;5012427;28;20026;-79
2023/05/11 08:40:00;;;;;;;17.08;12.65;;;;;;;;;;5011233;28;20017;-78
2023/05/11 08:42:28;;;;;;;19.42;12.60;;;;;;;;;;5029484;28;20038;-78
2023/05/11 08:44:56;;;;;;;15.75;12.30;;;;;;;;;;5029358;28;20022;-79
2023/05/11 08:47:23;;;;;;;17.33;11.60;;;;;;;;;;5014100;28;20010;-79
2023/05/11 08:49:51;;;;;;;15.85;11.20;;;;;;;;;;5011981;28;20029;-79
2023/05/11 08:52:17;;;;;;;16.95;11.43;;;;;;;;;;5012649;28;20085;-78
2023/05/11 08:54:43;;;;;;;15.65;11.80;;;;;;;;;;5013993;28;20026;-78
2023/05/11 08:57:10;;;;;;;15.60;10.68;;;;;;;;;;5015657;28;21183;-78
2023/05/11 08:59:36;;;;;;;23.05;10.93;;;;;;;;;;5011452;28;20085;-78
2023/05/11 09:02:05;;;;;;;17.02;12.05;;;;;;;;;;5013133;28;20065;-79
2023/05/11 09:04:34;;;;;;;14.70;11.18;;;;;;;;;;5030691;28;20049;-78
2023/05/11 09:07:00;;;;;;;16.15;10.82;;;;;;;;;;5011364;28;20025;-78
2023/05/11 09:09:29;;;;;;;15.23;10.27;;;;;;;;;;5008556;28;20038;-79
2023/05/11 09:11:55;;;;;;;14.60;10.43;;;;;;;;;;5012345;28;20106;-78
2023/05/11 09:14:23;;;;;;;14.82;10.00;;;;;;;;;;5027977;28;20021;-78
2023/05/11 09:16:49;;;;;;;14.73;10.48;;;;;;;;;;5012200;28;20015;-78
2023/05/11 09:19:15;;;;;;;11.70;9.40;;;;;;;;;;5011001;28;20049;-78
2023/05/11 09:21:41;;;;;;;14.05;10.00;;;;;;;;;;5025389;28;20086;-79
2023/05/11 09:24:10;;;;;;;15.70;9.68;;;;;;;;;;5027891;28;20021;-78
2023/05/11 09:26:36;;;;;;;17.90;10.27;;;;;;;;;;5028284;28;20014;-79
2023/05/11 09:29:02;;;;;;;16.60;9.30;;;;;;;;;;5029972;28;20033;-78
2023/05/11 09:31:36;;;;;;;14.75;9.05;;;;;;;;;;5009326;28;20061;-80
2023/05/11 09:34:28;;;;;;;13.55;8.60;;;;;;;;;;5026420;28;20302;-78
2023/05/11 09:36:55;;;;;;;12.90;10.02;;;;;;;;;;5024236;28;20037;-79
2023/05/11 09:39:29;;;;;;;19.02;10.68;;;;;;;;;;5026163;28;20094;-78
2023/05/11 09:42:14;;;;;;;15.07;9.70;;;;;;;;;;5029367;28;20062;-79
2023/05/11 09:44:44;;;;;;;19.50;10.18;;;;;;;;;;5010684;28;20024;-80
2023/05/11 09:47:15;;;;;;;19.75;10.75;;;;;;;;;;5030468;28;20057;-80
2023/05/11 09:49:47;;;;;;;20.02;11.30;;;;;;;;;;5032886;28;20025;-78
2023/05/11 09:52:19;;;;;;;20.25;11.52;;;;;;;;;;5014600;28;20017;-78
2023/05/11 09:54:47;;;;;;;16.75;9.07;;;;;;;;;;5016778;28;20034;-78
2023/05/11 09:57:26;;;;;;;14.43;9.80;;;;;;;;;;5030422;28;20082;-78
2023/05/11 09:59:53;;;;;;;14.82;8.23;;;;;;;;;;5033849;28;20029;-78
2023/05/11 10:02:22;;;;;;;14.85;8.02;;;;;;;;;;5030555;28;20045;-77
2023/05/11 10:04:53;;;;;;;14.18;8.23;;;;;;;;;;5032814;28;20029;-78
2023/05/11 10:07:34;;;;;;;17.70;9.48;;;;;;;;;;5033441;28;20006;-78
2023/05/11 10:10:02;;;;;;;16.43;10.23;;;;;;;;;;5014188;28;21087;-77
2023/05/11 10:12:29;;;;;;;15.27;8.60;;;;;;;;;;5034008;28;20284;-78
2023/05/11 10:14:58;;;;;;;16.98;9.07;;;;;;;;;;5030394;28;20306;-78
2023/05/11 10:17:24;;;;;;;21.13;10.50;;;;;;;;;;5015158;28;20098;-78
2023/05/11 10:19:51;;;;;;;19.40;10.57;;;;;;;;;;5016810;28;20022;-78
2023/05/11 10:22:18;;;;;;;17.42;10.18;;;;;;;;;;5030820;28;20022;-78
2023/05/11 10:24:44;;;;;;;21.45;12.55;;;;;;;;;;5011374;28;20061;-79
2023/05/11 10:27:11;;;;;;;22.10;12.38;;;;;;;;;;5015773;28;20010;-79
2023/05/11 10:29:39;;;;;;;23.63;13.73;;;;;;;;;;5028811;28;20040;-78
2023/05/11 10:32:06;;;;;;;25.35;13.63;;;;;;;;;;5027850;28;20034;-78
2023/05/11 10:34:33;;;;;;;27.55;13.73;;;;;;;;;;5032335;28;20073;-79
2023/05/11 10:37:02;;;;;;;20.20;11.73;;;;;;;;;;5016225;28;20014;-78
2023/05/11 10:39:29;;;;;;;23.08;11.23;;;;;;;;;;5030182;28;20085;-78
2023/05/11 10:42:01;;;;;;;21.70;12.75;;;;;;;;;;5031605;28;20049;-80
2023/05/11 10:44:42;;;;;;;24.85;13.15;;;;;;;;;;5032117;28;20025;-77
2023/05/11 10:47:27;;;;;;;26.33;13.50;;;;;;;;;;5016309;28;20022;-80
2023/05/11 10:49:59;;;;;;;22.50;13.43;;;;;;;;;;5017378;28;20053;-78
2023/05/11 10:52:38;;;;;;;18.80;12.20;;;;;;;;;;5016328;28;20032;-79
2023/05/11 10:55:13;;;;;;;22.10;13.57;;;;;;;;;;5032268;28;20085;-77
2023/05/11 10:57:57;;;;;;;24.63;14.70;;;;;;;;;;5030902;28;20036;-78
2023/05/11 11:00:29;;;;;;;29.10;16.42;;;;;;;;;;5014417;28;20090;-78
2023/05/11 11:02:56;;;;;;;26.30;15.45;;;;;;;;;;5015853;28;20053;-78
2023/05/11 11:05:33;;;;;;;27.25;14.27;;;;;;;;;;5014147;28;20049;-79
2023/05/11 11:08:02;;;;;;;26.92;13.95;;;;;;;;;;5031525;28;20041;-76
2023/05/11 11:10:34;;;;;;;27.83;15.32;;;;;;;;;;5031989;28;20018;-80
2023/05/11 11:13:03;;;;;;;26.60;14.90;;;;;;;;;;5012192;28;20034;-78
2023/05/11 11:15:48;;;;;;;26.45;16.05;;;;;;;;;;5030236;28;20026;-78
2023/05/11 11:18:21;;;;;;;32.25;17.50;;;;;;;;;;5014414;28;20042;-77
2023/05/11 11:20:51;;;;;;;33.65;17.13;;;;;;;;;;5016221;28;20092;-78
2023/05/11 11:23:35;;;;;;;30.42;16.30;;;;;;;;;;5028430;28;20048;-79
2023/05/11 11:26:01;;;;;;;26.00;15.27;;;;;;;;;;5012987;28;20105;-78
2023/05/11 11:28:28;;;;;;;26.13;16.02;;;;;;;;;;5019782;28;20021;-78
2023/05/11 11:31:26;;;;;;;21.92;14.30;;;;;;;;;;5026568;28;20050;-77
2023/05/11 11:33:57;;;;;;;27.83;16.17;;;;;;;;;;5006606;28;20049;-78
2023/05/11 11:36:42;;;;;;;34.97;18.27;;;;;;;;;;5015522;28;20030;-78
2023/05/11 11:39:09;;;;;;;26.40;16.45;;;;;;;;;;5026091;28;20048;-77
2023/05/11 11:41:41;;;;;;;29.52;15.60;;;;;;;;;;5013488;28;20038;-80
2023/05/11 11:44:19;;;;;;;28.50;15.93;;;;;;;;;;5013965;28;20033;-78
2023/05/11 11:46:46;;;;;;;30.98;17.02;;;;;;;;;;5026959;28;20034;-80
2023/05/11 11:49:12;;;;;;;28.88;16.67;;;;;;;;;;5030249;28;20026;-78
2023/05/11 11:51:40;;;;;;;28.17;16.35;;;;;;;;;;5030767;28;20018;-78
2023/05/11 11:54:06;;;;;;;28.00;15.75;;;;;;;;;;5013344;28;20014;-79
2023/05/11 11:56:32;;;;;;;35.78;18.52;;;;;;;;;;5010905;28;20046;-78
2023/05/11 11:59:09;;;;;;;36.92;18.20;;;;;;;;;;5013451;28;20027;-78
2023/05/11 12:01:38;;;;;;;30.75;18.65;;;;;;;;;;5028752;28;20040;-78
2023/05/11 12:04:07;;;;;;;33.50;17.65;;;;;;;;;;5012583;28;20093;-79
2023/05/11 12:06:38;;;;;;;32.08;18.17;;;;;;;;;;5028717;28;20648;-78
2023/05/11 12:09:04;;;;;;;28.88;17.63;;;;;;;;;;5030907;28;20021;-78
2023/05/11 12:11:30;;;;;;;29.33;16.98;;;;;;;;;;5030221;28;20030;-77
2023/05/11 12:13:57;;;;;;;33.78;17.73;;;;;;;;;;5015213;28;20024;-77
2023/05/11 12:16:23;;;;;;;32.83;16.45;;;;;;;;;;5013344;28;20052;-78
2023/05/11 12:18:56;;;;;;;31.33;16.45;;;;;;;;;;5026982;28;20015;-79
2023/05/11 12:21:23;;;;;;;27.40;15.57;;;;;;;;;;5013326;28;20045;-77
2023/05/11 12:24:01;;;;;;;25.38;14.82;;;;;;;;;;5011936;28;20050;-78
2023/05/11 12:26:28;;;;;;;24.95;15.77;;;;;;;;;;5016244;28;20028;-77
2023/05/11 12:29:14;;;;;;;23.08;14.90;;;;;;;;;;5016548;28;20110;-77
2023/05/11 12:31:44;;;;;;;23.52;14.32;;;;;;;;;;5008660;28;20057;-78
2023/05/11 12:34:20;;;;;;;23.98;13.27;;;;;;;;;;5008311;28;20026;-78
2023/05/11 12:36:47;;;;;;;25.05;14.32;;;;;;;;;;5030054;28;20026;-78
2023/05/11 12:39:22;;;;;;;25.35;14.52;;;;;;;;;;5014804;28;20022;-77
2023/05/11 12:41:48;;;;;;;27.17;14.05;;;;;;;;;;5026507;28;20049;-80
2023/05/11 12:44:18;;;;;;;25.27;13.75;;;;;;;;;;5027768;28;20018;-80
2023/05/11 12:46:45;;;;;;;21.65;13.10;;;;;;;;;;5008435;28;20104;-78
2023/05/11 12:49:23;;;;;;;22.40;12.13;;;;;;;;;;5012185;28;20022;-77
2023/05/11 12:52:01;;;;;;;24.00;13.13;;;;;;;;;;5028491;28;20052;-77
2023/05/11 12:54:34;;;;;;;27.10;13.43;;;;;;;;;;5013211;28;20037;-78
2023/05/11 12:57:01;;;;;;;26.27;14.00;;;;;;;;;;5011807;28;20021;-77
2023/05/11 12:59:37;;;;;;;30.17;14.15;;;;;;;;;;5014101;28;20025;-77
2023/05/11 13:02:14;;;;;;;23.65;13.63;;;;;;;;;;5013551;28;20088;-77
2023/05/11 13:04:41;;;;;;;28.08;13.40;;;;;;;;;;5011368;28;20014;-79
2023/05/11 13:07:07;;;;;;;21.73;13.02;;;;;;;;;;5030284;28;20198;-77
2023/05/11 13:09:33;;;;;;;29.27;13.57;;;;;;;;;;5013282;28;20018;-78
2023/05/11 13:12:06;;;;;;;23.05;13.15;;;;;;;;;;5012330;28;20167;-77
2023/05/11 13:14:33;;;;;;;23.83;13.20;;;;;;;;;;5014691;28;20033;-78
2023/05/11 13:16:59;;;;;;;26.80;14.20;;;;;;;;;;5013373;28;20022;-78
2023/05/11 13:19:29;;;;;;;22.27;12.93;;;;;;;;;;5029596;28;20029;-77
2023/05/11 13:21:56;;;;;;;21.42;12.77;;;;;;;;;;5014476;28;20037;-78
2023/05/11 13:24:22;;;;;;;21.77;13.55;;;;;;;;;;5034799;28;20097;-78
2023/05/11 13:26:48;;;;;;;23.92;12.98;;;;;;;;;;5033192;28;20093;-79
2023/05/11 13:29:15;;;;;;;22.23;13.00;;;;;;;;;;5028213;28;20023;-79
2023/05/11 13:31:44;;;;;;;21.95;12.15;;;;;;;;;;5034895;28;20037;-78
2023/05/11 13:34:12;;;;;;;21.30;12.30;;;;;;;;;;5032606;28;20030;-78
2023/05/11 13:36:38;;;;;;;24.23;12.63;;;;;;;;;;5030839;28;20026;-78
2023/05/11 13:39:05;;;;;;;21.15;11.20;;;;;;;;;;5016835;28;20044;-79
2023/05/11 13:41:31;;;;;;;22.17;12.43;;;;;;;;;;5035888;28;20086;-78
2023/05/11 13:43:57;;;;;;;19.02;12.25;;;;;;;;;;5035591;28;20021;-79
2023/05/11 13:46:23;;;;;;;19.95;11.98;;;;;;;;;;5034049;28;20014;-78
2023/05/11 13:48:50;;;;;;;20.90;11.82;;;;;;;;;;5017813;28;20054;-79
2023/05/11 13:51:16;;;;;;;24.10;13.38;;;;;;;;;;5028872;28;20083;-77
2023/05/11 13:53:45;;;;;;;22.83;13.55;;;;;;;;;;5028377;28;20062;-79
2023/05/11 13:56:11;;;;;;;22.67;12.63;;;;;;;;;;5032490;28;20026;-78
2023/05/11 13:58:37;;;;;;;26.20;12.52;;;;;;;;;;5034483;28;20014;-77
2023/05/11 14:01:03;;;;;;;23.10;12.02;;;;;;;;;;5017908;28;20034;-78
2023/05/11 14:03:30;;;;;;;20.98;12.02;;;;;;;;;;5018205;28;20047;-78
2023/05/11 14:05:57;;;;;;;19.92;12.00;;;;;;;;;;5033236;28;20078;-77
2023/05/11 14:08:23;;;;;;;19.70;11.65;;;;;;;;;;5013999;28;20028;-78
2023/05/11 14:10:49;;;;;;;21.60;12.65;;;;;;;;;;5028791;28;20097;-78
2023/05/11 14:13:15;;;;;;;23.50;13.10;;;;;;;;;;5014916;28;20044;-77
2023/05/11 14:15:41;;;;;;;23.27;11.98;;;;;;;;;;5033449;28;20050;-78
2023/05/11 14:18:08;;;;;;;18.17;11.80;;;;;;;;;;5014557;28;20021;-77
2023/05/11 14:20:41;;;;;;;22.55;10.98;;;;;;;;;;5014027;28;20041;-79
2023/05/11 14:23:09;;;;;;;22.08;12.23;;;;;;;;;;5030655;28;20099;-78
2023/05/11 14:25:36;;;;;;;22.80;11.20;;;;;;;;;;5028048;28;20018;-78